createdAt,value
2023-03-13T00:00:01.509Z,1.70
2023-03-13T00:03:03.171Z,2.00
2023-03-13T00:06:04.997Z,1.75
2023-03-13T00:09:12.415Z,1.88
2023-03-13T00:12:14.051Z,1.70
2023-03-13T00:15:15.771Z,1.42
2023-03-13T00:18:17.595Z,1.58
2023-03-13T00:21:21.634Z,1.85
2023-03-13T00:24:23.207Z,1.90
2023-03-13T00:27:25.080Z,1.60
2023-03-13T00:30:26.860Z,1.52
2023-03-13T00:33:28.976Z,1.75
2023-03-13T00:36:33.299Z,1.88
2023-03-13T00:39:36.596Z,1.50
2023-03-13T00:42:38.263Z,1.52
2023-03-13T00:45:39.871Z,1.52
2023-03-13T00:48:41.615Z,1.55
2023-03-13T00:51:43.194Z,1.70
2023-03-13T00:54:44.837Z,1.55
2023-03-13T00:57:46.495Z,1.88
2023-03-13T01:00:48.157Z,1.50
2023-03-13T01:03:52.491Z,1.67
2023-03-13T01:06:54.078Z,1.40
2023-03-13T01:09:55.766Z,1.63
2023-03-13T01:12:57.330Z,1.58
2023-03-13T01:16:08.302Z,1.60
2023-03-13T01:19:16.212Z,1.60
2023-03-13T01:22:17.836Z,1.48
2023-03-13T01:25:19.389Z,1.40
2023-03-13T01:28:23.393Z,1.40
2023-03-13T01:31:31.464Z,1.42
2023-03-13T01:34:33.946Z,1.63
2023-03-13T01:37:35.629Z,1.65
2023-03-13T01:40:43.898Z,1.50
2023-03-13T01:43:46.116Z,1.35
2023-03-13T01:46:48.764Z,1.70
2023-03-13T01:50:09.903Z,1.40
2023-03-13T01:53:31.877Z,1.73
2023-03-13T01:56:45.260Z,1.30
2023-03-13T01:59:53.777Z,1.58
2023-03-13T02:02:59.706Z,1.73
2023-03-13T02:06:02.540Z,1.75
2023-03-13T02:09:10.119Z,1.27
2023-03-13T02:12:16.364Z,1.42
2023-03-13T02:15:21.014Z,1.50
2023-03-13T02:18:22.975Z,1.50
2023-03-13T02:21:43.715Z,2.00
2023-03-13T02:25:06.201Z,1.50
2023-03-13T02:28:13.541Z,1.65
2023-03-13T02:31:16.399Z,2.30
2023-03-13T02:34:24.176Z,1.88
2023-03-13T02:37:28.677Z,1.80
2023-03-13T02:40:38.898Z,1.60
2023-03-13T02:43:40.792Z,1.73
2023-03-13T02:46:52.450Z,1.58
2023-03-13T02:49:57.825Z,1.65
2023-03-13T02:53:05.562Z,1.60
2023-03-13T02:56:07.586Z,1.45
2023-03-13T02:59:10.217Z,1.50
2023-03-13T03:02:14.856Z,1.40
2023-03-13T03:05:16.659Z,1.50
2023-03-13T03:08:18.366Z,1.42
2023-03-13T03:11:19.995Z,1.38
2023-03-13T03:14:27.139Z,1.42
2023-03-13T03:17:28.905Z,1.60
2023-03-13T03:20:30.596Z,1.50
2023-03-13T03:23:35.996Z,1.63
2023-03-13T03:26:37.858Z,1.60
2023-03-13T03:29:45.924Z,1.50
2023-03-13T03:32:47.654Z,1.50
2023-03-13T03:35:50.032Z,1.52
2023-03-13T03:38:52.022Z,1.50
2023-03-13T03:41:58.610Z,1.45
2023-03-13T03:45:01.529Z,1.73
2023-03-13T03:48:03.339Z,1.40
2023-03-13T03:51:05.813Z,1.45
2023-03-13T03:54:10.269Z,1.45
2023-03-13T03:57:12.126Z,1.50
2023-03-13T04:00:19.701Z,1.40
2023-03-13T04:03:27.550Z,1.48
2023-03-13T04:06:30.391Z,1.40
2023-03-13T04:09:32.373Z,1.40
2023-03-13T04:12:35.900Z,1.38
2023-03-13T04:15:39.959Z,1.40
2023-03-13T04:18:43.772Z,1.20
2023-03-13T04:21:46.024Z,1.20
2023-03-13T04:24:51.675Z,1.17
2023-03-13T04:27:55.196Z,1.40
2023-03-13T04:31:01.343Z,1.30
2023-03-13T04:34:26.585Z,1.50
2023-03-13T04:37:41.997Z,1.40
2023-03-13T04:41:14.249Z,1.20
2023-03-13T04:44:26.418Z,1.30
2023-03-13T04:47:38.536Z,1.30
2023-03-13T04:51:06.427Z,1.15
2023-03-13T04:54:26.693Z,1.30
2023-03-13T04:57:57.601Z,1.20
2023-03-13T05:01:09.171Z,1.10
2023-03-13T05:04:29.528Z,1.20
2023-03-13T05:07:49.260Z,1.42
2023-03-13T05:11:10.412Z,1.10
2023-03-13T05:14:33.548Z,1.23
2023-03-13T05:18:01.517Z,1.15
2023-03-13T05:21:12.987Z,1.20
2023-03-13T05:24:35.627Z,1.20
2023-03-13T05:27:49.046Z,1.50
2023-03-13T05:31:10.929Z,1.20
2023-03-13T05:34:35.592Z,1.60
2023-03-13T05:37:46.281Z,1.40
2023-03-13T05:41:02.716Z,1.85
2023-03-13T05:44:23.017Z,1.30
2023-03-13T05:47:47.740Z,1.48
2023-03-13T05:51:15.240Z,1.40
2023-03-13T05:54:49.128Z,1.40
2023-03-13T05:58:14.938Z,1.20
2023-03-13T06:01:39.395Z,1.30
2023-03-13T06:04:50.529Z,1.30
2023-03-13T06:07:52.669Z,1.40
2023-03-13T06:10:54.942Z,1.70
2023-03-13T06:13:56.643Z,1.42
2023-03-13T06:17:05.076Z,1.40
2023-03-13T06:20:07.306Z,1.50
2023-03-13T06:23:09.096Z,1.15
2023-03-13T06:26:11.034Z,1.20
2023-03-13T06:29:12.671Z,1.10
2023-03-13T06:32:14.349Z,1.20
2023-03-13T06:35:16.126Z,1.20
2023-03-13T06:38:17.785Z,1.33
2023-03-13T06:41:19.454Z,1.20
2023-03-13T06:44:21.116Z,1.10
2023-03-13T06:47:22.827Z,1.30
2023-03-13T06:50:24.393Z,1.23
2023-03-13T06:53:26.151Z,1.20
2023-03-13T06:56:27.809Z,1.05
2023-03-13T06:59:29.437Z,1.10
2023-03-13T07:02:31.065Z,1.70
2023-03-13T07:05:32.661Z,1.60
2023-03-13T07:08:35.633Z,1.58
2023-03-13T07:11:37.227Z,1.75
2023-03-13T07:14:38.972Z,1.30
2023-03-13T07:17:40.650Z,1.40
2023-03-13T07:20:42.373Z,1.85
2023-03-13T07:23:44.035Z,1.80
2023-03-13T07:26:58.104Z,1.50
2023-03-13T07:30:07.026Z,2.20
2023-03-13T07:33:08.655Z,1.80
2023-03-13T07:36:11.229Z,1.20
2023-03-13T07:39:12.990Z,1.60
2023-03-13T07:42:14.600Z,1.30
2023-03-13T07:45:16.374Z,1.10
2023-03-13T07:48:18.666Z,1.20
2023-03-13T07:51:36.849Z,1.40
2023-03-13T07:54:42.342Z,1.50
2023-03-13T07:57:43.929Z,1.50
2023-03-13T08:00:45.512Z,1.20
2023-03-13T08:03:50.622Z,1.10
2023-03-13T08:06:52.388Z,1.27
2023-03-13T08:09:53.986Z,1.30
2023-03-13T08:12:55.574Z,1.20
2023-03-13T08:16:07.836Z,1.10
2023-03-13T08:19:10.460Z,1.00
2023-03-13T08:22:12.110Z,1.20
2023-03-13T08:25:15.005Z,1.10
2023-03-13T08:28:16.541Z,1.40
2023-03-13T08:31:21.642Z,1.17
2023-03-13T08:34:23.245Z,1.15
2023-03-13T08:37:24.963Z,1.30
2023-03-13T08:40:26.512Z,1.20
2023-03-13T08:43:28.345Z,1.55
2023-03-13T08:46:32.263Z,1.50
2023-03-13T08:49:34.101Z,1.70
2023-03-13T08:52:35.737Z,1.30
2023-03-13T08:55:37.439Z,1.20
2023-03-13T08:58:39.259Z,1.30
2023-03-13T09:01:41.237Z,1.23
2023-03-13T09:04:42.802Z,1.58
2023-03-13T09:07:44.462Z,1.50
2023-03-13T09:10:46.081Z,1.70
2023-03-13T09:13:49.968Z,1.70
2023-03-13T09:16:51.595Z,1.50
2023-03-13T09:20:00.109Z,1.58
2023-03-13T09:23:02.014Z,1.40
2023-03-13T09:26:04.560Z,1.30
2023-03-13T09:29:06.198Z,1.25
2023-03-13T09:32:09.683Z,1.60
2023-03-13T09:35:11.236Z,1.40
2023-03-13T09:38:13.116Z,1.40
2023-03-13T09:41:17.738Z,1.58
2023-03-13T09:44:25.763Z,1.30
2023-03-13T09:47:38.611Z,1.40
2023-03-13T09:50:47.744Z,1.30
2023-03-13T09:53:59.437Z,1.50
2023-03-13T09:57:13.009Z,1.45
2023-03-13T10:00:19.952Z,1.50
2023-03-13T10:03:27.668Z,1.60
2023-03-13T10:06:34.713Z,1.52
2023-03-13T10:09:37.360Z,1.90
2023-03-13T10:12:45.600Z,1.50
2023-03-13T10:15:55.169Z,1.50
2023-03-13T10:18:59.947Z,1.33
2023-03-13T10:22:03.913Z,1.50
2023-03-13T10:25:21.216Z,1.50
2023-03-13T10:28:22.995Z,1.30
2023-03-13T10:31:33.109Z,1.20
2023-03-13T10:34:57.985Z,1.33
2023-03-13T10:38:15.387Z,1.35
2023-03-13T10:41:31.055Z,1.50
2023-03-13T10:44:33.571Z,1.30
2023-03-13T10:47:37.911Z,1.30
2023-03-13T10:50:44.409Z,1.00
2023-03-13T10:53:46.157Z,1.15
2023-03-13T10:56:48.161Z,1.25
2023-03-13T10:59:52.010Z,1.10
2023-03-13T11:02:54.641Z,1.25
2023-03-13T11:05:58.279Z,1.23
2023-03-13T11:09:02.969Z,1.17
2023-03-13T11:12:20.122Z,1.10
2023-03-13T11:15:34.725Z,1.20
2023-03-13T11:18:58.286Z,1.10
2023-03-13T11:22:15.056Z,1.00
2023-03-13T11:25:51.687Z,1.02
2023-03-13T11:29:08.049Z,1.10
2023-03-13T11:32:26.670Z,1.00
2023-03-13T11:35:46.771Z,1.05
2023-03-13T11:38:54.005Z,1.00
2023-03-13T11:42:19.844Z,1.20
2023-03-13T11:46:04.242Z,1.10
2023-03-13T11:49:24.534Z,1.10
2023-03-13T11:52:53.984Z,1.00
2023-03-13T11:56:16.155Z,1.10
2023-03-13T11:59:47.740Z,1.00
2023-03-13T12:03:05.802Z,0.90
2023-03-13T12:06:28.022Z,1.00
2023-03-13T12:09:41.547Z,1.10
2023-03-13T12:13:02.026Z,1.10
2023-03-13T12:16:12.307Z,1.10
2023-03-13T12:19:29.911Z,1.08
2023-03-13T12:22:49.477Z,1.17
2023-03-13T12:26:04.816Z,1.10
2023-03-13T12:29:14.974Z,1.10
2023-03-13T12:32:28.126Z,1.10
2023-03-13T12:35:33.446Z,1.00
2023-03-13T12:38:44.113Z,1.20
2023-03-13T12:42:14.125Z,1.00
2023-03-13T12:45:20.311Z,1.10
2023-03-13T12:48:28.692Z,1.10
2023-03-13T12:52:08.120Z,1.10
2023-03-13T12:55:35.277Z,1.00
2023-03-13T12:58:39.971Z,0.90
2023-03-13T13:01:52.716Z,1.40
2023-03-13T13:04:56.689Z,1.20
2023-03-13T13:07:58.446Z,1.10
2023-03-13T13:11:34.629Z,1.10
2023-03-13T13:14:48.027Z,1.13
2023-03-13T13:17:55.022Z,1.10
2023-03-13T13:21:05.840Z,1.00
2023-03-13T13:24:39.693Z,1.17
2023-03-13T13:27:41.254Z,1.10
2023-03-13T13:30:42.960Z,1.20
2023-03-13T13:33:44.739Z,1.10
2023-03-13T13:36:46.624Z,1.20
2023-03-13T13:39:53.609Z,1.20
2023-03-13T13:42:59.702Z,1.00
2023-03-13T13:49:04.763Z,1.00
2023-03-13T13:52:06.325Z,1.10
2023-03-13T13:55:26.244Z,1.10
2023-03-13T13:58:31.048Z,1.25
2023-03-13T14:01:34.123Z,1.10
2023-03-13T14:04:44.979Z,1.10
2023-03-13T14:07:53.238Z,1.10
2023-03-13T14:11:19.288Z,1.27
2023-03-13T14:14:22.037Z,1.10
2023-03-13T14:17:23.741Z,1.10
2023-03-13T14:20:29.144Z,0.90
2023-03-13T14:23:43.881Z,1.15
2023-03-13T14:26:46.058Z,1.10
2023-03-13T14:30:06.935Z,1.20
2023-03-13T14:33:08.563Z,1.10
2023-03-13T14:36:12.196Z,1.10
2023-03-13T14:39:32.631Z,1.15
2023-03-13T14:42:40.415Z,1.45
2023-03-13T14:45:42.148Z,1.20
2023-03-13T14:48:44.323Z,1.20
2023-03-13T14:51:59.013Z,1.38
2023-03-13T14:55:09.013Z,1.30
2023-03-13T14:58:19.751Z,1.20
2023-03-13T15:01:26.891Z,1.20
2023-03-13T15:05:02.001Z,1.13
2023-03-13T15:08:04.347Z,1.20
2023-03-13T15:11:35.064Z,1.35
2023-03-13T15:14:42.629Z,1.10
2023-03-13T15:17:44.833Z,1.20
2023-03-13T15:20:58.751Z,1.30
2023-03-13T15:24:15.149Z,1.30
2023-03-13T15:27:19.165Z,1.30
2023-03-13T15:30:23.685Z,1.30
2023-03-13T15:33:29.159Z,1.30
2023-03-13T15:36:32.051Z,1.23
2023-03-13T15:39:33.643Z,1.30
2023-03-13T15:42:35.209Z,1.10
2023-03-13T15:45:38.674Z,1.10
2023-03-13T15:48:42.116Z,1.05
2023-03-13T15:51:43.770Z,1.17
2023-03-13T15:54:49.786Z,1.30
2023-03-13T15:57:51.411Z,1.30
2023-03-13T16:00:53.315Z,1.05
2023-03-13T16:03:54.934Z,1.45
2023-03-13T16:06:58.047Z,1.52
2023-03-13T16:09:59.681Z,1.30
2023-03-13T16:13:03.516Z,1.70
2023-03-13T16:16:36.871Z,1.83
2023-03-13T16:19:38.704Z,1.70
2023-03-13T16:22:40.276Z,1.55
2023-03-13T16:25:41.890Z,1.30
2023-03-13T16:28:43.948Z,1.60
2023-03-13T16:31:45.663Z,1.20
2023-03-13T16:34:47.254Z,1.10
2023-03-13T16:37:50.785Z,1.20
2023-03-13T16:40:52.416Z,1.00
2023-03-13T16:43:54.727Z,1.00
2023-03-13T16:47:05.647Z,1.25
2023-03-13T16:50:18.942Z,1.20
2023-03-13T16:53:20.540Z,1.50
2023-03-13T16:56:24.967Z,1.80
2023-03-13T16:59:26.772Z,1.52
2023-03-13T17:02:29.624Z,1.40
2023-03-13T17:05:31.340Z,1.20
2023-03-13T17:08:32.977Z,1.15
2023-03-13T17:11:34.612Z,1.48
2023-03-13T17:14:36.859Z,1.30
2023-03-13T17:17:39.406Z,1.30
2023-03-13T17:20:41.145Z,1.50
2023-03-13T17:23:42.711Z,2.10
2023-03-13T17:26:44.428Z,1.60
2023-03-13T17:29:46.140Z,1.58
2023-03-13T17:32:50.214Z,1.38
2023-03-13T17:35:51.934Z,1.50
2023-03-13T17:38:56.218Z,2.00
2023-03-13T17:42:00.219Z,2.40
2023-03-13T17:45:01.840Z,2.00
2023-03-13T17:48:03.611Z,1.48
2023-03-13T17:51:05.345Z,1.60
2023-03-13T17:54:08.338Z,1.40
2023-03-13T17:57:16.557Z,2.38
2023-03-13T18:00:29.120Z,1.92
2023-03-13T18:03:30.760Z,2.10
2023-03-13T18:06:38.846Z,2.10
2023-03-13T18:09:40.489Z,1.80
2023-03-13T18:12:42.491Z,1.50
2023-03-13T18:15:44.084Z,1.40
2023-03-13T18:18:46.577Z,1.52
2023-03-13T18:21:49.577Z,1.30
2023-03-13T18:24:51.460Z,1.90
2023-03-13T18:27:53.036Z,1.30
2023-03-13T18:30:54.609Z,1.50
2023-03-13T18:33:57.765Z,1.50
2023-03-13T18:37:03.633Z,1.63
2023-03-13T18:40:17.277Z,1.40
2023-03-13T18:43:19.003Z,1.30
2023-03-13T18:46:31.353Z,1.50
2023-03-13T18:49:32.952Z,1.30
2023-03-13T18:52:34.548Z,1.42
2023-03-13T18:55:36.125Z,1.48
2023-03-13T18:58:37.845Z,2.00
2023-03-13T19:01:39.401Z,2.25
2023-03-13T19:04:41.525Z,2.63
2023-03-13T19:07:43.538Z,1.90
2023-03-13T19:10:45.178Z,1.83
2023-03-13T19:13:46.917Z,2.85
2023-03-13T19:16:52.895Z,1.60
2023-03-13T19:19:57.342Z,1.67
2023-03-13T19:23:00.696Z,1.40
2023-03-13T19:26:02.440Z,1.73
2023-03-13T19:29:06.292Z,1.13
2023-03-13T19:32:13.658Z,1.00
2023-03-13T19:35:18.773Z,2.83
2023-03-13T19:38:23.548Z,1.10
2023-03-13T19:41:25.185Z,1.10
2023-03-13T19:44:26.712Z,1.10
2023-03-13T19:47:29.335Z,1.00
2023-03-13T19:50:31.612Z,0.90
2023-03-13T19:53:34.636Z,0.95
2023-03-13T19:56:36.663Z,0.90
2023-03-13T19:59:40.029Z,1.10
2023-03-13T20:02:41.744Z,1.17
2023-03-13T20:05:43.308Z,0.90
2023-03-13T20:08:46.288Z,1.00
2023-03-13T20:11:47.989Z,0.95
2023-03-13T20:14:49.914Z,1.00
2023-03-13T20:17:51.875Z,1.20
2023-03-13T20:20:53.430Z,1.10
2023-03-13T20:23:55.232Z,1.20
2023-03-13T20:26:56.859Z,1.00
2023-03-13T20:29:58.484Z,1.00
2023-03-13T20:33:00.271Z,1.52
2023-03-13T20:36:08.322Z,1.40
2023-03-13T20:39:09.887Z,1.60
2023-03-13T20:42:11.633Z,1.48
2023-03-13T20:45:13.224Z,1.30
2023-03-13T20:48:15.267Z,1.30
2023-03-13T20:51:17.160Z,1.15
2023-03-13T20:54:19.216Z,1.27
2023-03-13T20:57:21.171Z,1.30
2023-03-13T21:00:23.327Z,1.10
2023-03-13T21:03:25.105Z,1.33
2023-03-13T21:06:27.320Z,1.00
2023-03-13T21:09:29.391Z,1.10
2023-03-13T21:12:31.020Z,1.10
2023-03-13T21:15:33.046Z,1.00
2023-03-13T21:18:34.914Z,1.15
2023-03-13T21:21:36.944Z,1.10
2023-03-13T21:24:38.652Z,1.30
2023-03-13T21:27:40.419Z,1.20
2023-03-13T21:30:42.429Z,1.30
2023-03-13T21:33:45.656Z,1.40
2023-03-13T21:36:47.428Z,1.23
2023-03-13T21:39:53.253Z,1.20
2023-03-13T21:42:54.857Z,1.30
2023-03-13T21:45:59.568Z,1.15
2023-03-13T21:49:01.166Z,1.15
2023-03-13T21:52:03.426Z,1.30
2023-03-13T21:55:07.578Z,1.50
2023-03-13T21:58:09.168Z,1.30
2023-03-13T22:01:11.739Z,1.30
2023-03-13T22:04:13.833Z,1.00
2023-03-13T22:07:15.412Z,1.15
2023-03-13T22:10:17.169Z,1.23
2023-03-13T22:13:18.802Z,1.30
2023-03-13T22:16:21.204Z,1.42
2023-03-13T22:19:23.173Z,1.60
2023-03-13T22:22:25.626Z,1.20
2023-03-13T22:25:27.158Z,1.10
2023-03-13T22:28:28.745Z,1.30
2023-03-13T22:31:30.629Z,1.00
2023-03-13T22:34:32.435Z,1.50
2023-03-13T22:37:34.032Z,1.10
2023-03-13T22:40:35.569Z,1.30
2023-03-13T22:43:37.159Z,1.20
2023-03-13T22:46:38.837Z,1.10
2023-03-13T22:49:41.019Z,1.00
2023-03-13T22:52:43.053Z,1.30
2023-03-13T22:55:44.651Z,1.30
2023-03-13T22:58:46.562Z,1.20
2023-03-13T23:01:48.356Z,1.23
2023-03-13T23:04:50.005Z,1.27
2023-03-13T23:07:51.578Z,1.10
2023-03-13T23:10:53.158Z,1.00
2023-03-13T23:13:54.736Z,1.08
2023-03-13T23:16:56.928Z,1.30
2023-03-13T23:20:01.111Z,1.20
2023-03-13T23:23:02.754Z,1.27
2023-03-13T23:26:07.287Z,1.30
2023-03-13T23:29:09.015Z,1.10
2023-03-13T23:32:10.558Z,1.20
2023-03-13T23:35:13.384Z,1.35
2023-03-13T23:38:18.347Z,1.20
2023-03-13T23:41:20.877Z,1.10
2023-03-13T23:44:22.398Z,1.10
2023-03-13T23:47:24.086Z,1.30
2023-03-13T23:50:25.775Z,1.67
2023-03-13T23:53:27.285Z,1.30
2023-03-13T23:56:30.484Z,1.40
2023-03-13T23:59:32.776Z,1.30
